CheckWX is a tool to help pilots better visualize weather data.  It is not intended as a substitute for an official pre-flight weather briefing.

02:01:14 UTC

LQSA TAF
Sarajevo International Airport
Sarajevo, Bosnia and Herzegovina
TAF LQSA 182300Z 1900/1924 30006KT 9999 SCT015 BKN050 TX06/1900Z TN03/1906Z TEMPO 1900/1924 4000 RA BKN010 OVC030 PROB40 TEMPO 1916/1924 1500 SN BKN007 OVC015

Mar-19@
00:00 UTC

Mar-19 @ 00:00 UTC

Mar-20@
00:00 UTC

Mar-20 @ 00:00 UTC

TAF LQSA 182300Z 1900/1924 30006KT 9999 SCT015 BKN050 TX06/1900Z TN03/1906Z
Wind
  • 300° at 6 KTS
Cloud Levels
  • Scattered at 1,500' AGL
  • Broken at 5,000' AGL

Mar-19@
00:00 UTC

Mar-19 @ 00:00 UTC

Mar-20@
00:00 UTC

Mar-20 @ 00:00 UTC

TEMPO 1900/1924 4000 RA BKN010 OVC030

Temporary

Temporary Changes expected for less than half the time period

Conditions
Rain
Cloud Levels
  • Broken at 1,000' AGL
  • Overcast at 3,000' AGL

Mar-19@
16:00 UTC

Mar-19 @ 16:00 UTC

Mar-20@
00:00 UTC

Mar-20 @ 00:00 UTC

PROB40 TEMPO 1916/1924 1500 SN BKN007 OVC015

Temporary - 40% Likelihood

Temporary - 40% Likelihood during this time.

Conditions
Snow
Cloud Levels
  • Broken at 700' AGL
  • Overcast at 1,500' AGL